ルクソール の空港の天気 - METARとTAF

ルクソール国際空港 ( HELX / LXR ) - エジプト ルクソール
飛行場実況気象(Metar)
観測時間07/29 04:00 EET (07/29 02:00 UTC)
風向・風速西 2m/s
視程10km以上
天気現象
なし
気温29℃
湿度33%
気圧1003hPa
METARHELX 290200Z 26004KT CAVOK 29/11 Q1003 NOSIG
過去の天気等 Google飛行場航空写真 Wunderground天気予報

過去48時間のMETAR

飛行場予報(TAF)
発表時間: 7/29 01:00 EET (7/28 23:00 UTC)
予報対象時間: 29日2時 EET ~ 30日8時 EET
風向・風速西北西 3m/s
視程10km以上
なし
TAF HELX 282300Z 2900/3006 30006KT CAVOK